createdAt,value
2022-10-25T00:02:24.291Z,16.21
2022-10-25T00:04:51.607Z,16.21
2022-10-25T00:07:18.528Z,16.20
2022-10-25T00:09:45.375Z,16.27
2022-10-25T00:12:12.243Z,16.30
2022-10-25T00:14:39.117Z,16.15
2022-10-25T00:17:05.968Z,16.09
2022-10-25T00:19:33.227Z,15.89
2022-10-25T00:22:00.109Z,16.01
2022-10-25T00:24:27.040Z,15.98
2022-10-25T00:26:53.963Z,15.96
2022-10-25T00:29:20.900Z,16.06
2022-10-25T00:31:48.131Z,15.93
2022-10-25T00:34:15.099Z,15.84
2022-10-25T00:36:41.982Z,15.64
2022-10-25T00:39:08.920Z,15.63
2022-10-25T00:41:35.998Z,15.60
2022-10-25T00:44:37.042Z,15.53
2022-10-25T00:47:18.415Z,15.49
2022-10-25T00:49:47.361Z,15.45
2022-10-25T00:52:14.330Z,15.47
2022-10-25T00:54:49.090Z,15.51
2022-10-25T00:57:28.127Z,15.55
2022-10-25T00:59:55.285Z,15.57
2022-10-25T01:02:22.981Z,15.55
2022-10-25T01:04:50.972Z,15.55
2022-10-25T01:07:17.835Z,15.62
2022-10-25T01:09:45.186Z,15.75
2022-10-25T01:12:12.171Z,15.87
2022-10-25T01:14:44.458Z,15.92
2022-10-25T01:17:20.532Z,15.87
2022-10-25T01:20:08.734Z,15.80
2022-10-25T01:22:41.875Z,15.85
2022-10-25T01:25:11.726Z,15.93
2022-10-25T01:27:51.976Z,15.87
2022-10-25T01:30:25.092Z,15.76
2022-10-25T01:33:16.586Z,15.79
2022-10-25T01:35:54.124Z,15.55
2022-10-25T01:38:50.483Z,15.57
2022-10-25T01:41:25.023Z,15.56
2022-10-25T01:44:20.953Z,15.66
2022-10-25T01:46:57.007Z,15.63
2022-10-25T01:49:58.137Z,15.73
2022-10-25T01:52:25.688Z,15.70
2022-10-25T01:54:52.869Z,15.73
2022-10-25T01:57:58.733Z,15.76
2022-10-25T02:00:26.519Z,15.67
2022-10-25T02:02:59.065Z,15.64
2022-10-25T02:06:03.258Z,15.67
2022-10-25T02:08:57.836Z,15.40
2022-10-25T02:11:30.394Z,15.58
2022-10-25T02:14:10.718Z,15.54
2022-10-25T02:16:50.806Z,15.61
2022-10-25T02:19:21.294Z,15.63
2022-10-25T02:21:50.313Z,15.63
2022-10-25T02:24:21.874Z,15.61
2022-10-25T02:26:50.941Z,15.61
2022-10-25T02:29:19.938Z,15.69
2022-10-25T02:31:47.230Z,15.76
2022-10-25T02:34:14.393Z,15.75
2022-10-25T02:36:41.253Z,15.75
2022-10-25T02:39:08.762Z,15.67
2022-10-25T02:41:35.911Z,15.58
2022-10-25T02:44:02.766Z,15.64
2022-10-25T02:46:29.742Z,15.67
2022-10-25T02:48:56.584Z,15.50
2022-10-25T02:51:23.617Z,15.47
2022-10-25T02:53:50.622Z,15.27
2022-10-25T02:56:20.003Z,15.34
2022-10-25T02:58:48.386Z,15.46
2022-10-25T03:01:17.438Z,15.26
2022-10-25T03:03:45.300Z,14.94
2022-10-25T03:06:12.958Z,14.63
2022-10-25T03:08:41.243Z,14.38
2022-10-25T03:11:10.365Z,14.31
2022-10-25T03:13:37.785Z,14.40
2022-10-25T03:16:04.948Z,14.62
2022-10-25T03:18:31.874Z,14.53
2022-10-25T03:21:00.889Z,14.70
2022-10-25T03:23:28.811Z,14.71
2022-10-25T03:25:58.123Z,14.87
2022-10-25T03:28:27.551Z,14.99
2022-10-25T03:30:56.132Z,15.01
2022-10-25T03:33:23.385Z,15.11
2022-10-25T03:35:51.947Z,15.14
2022-10-25T03:38:18.968Z,15.19
2022-10-25T03:40:46.330Z,15.21
2022-10-25T03:43:13.289Z,15.28
2022-10-25T03:45:40.252Z,15.33
2022-10-25T03:48:07.458Z,15.32
2022-10-25T03:50:36.186Z,15.32
2022-10-25T03:53:04.642Z,15.33
2022-10-25T03:55:32.088Z,15.35
2022-10-25T03:57:59.190Z,15.31
2022-10-25T04:00:26.981Z,15.30
2022-10-25T04:03:01.866Z,15.36
2022-10-25T04:05:30.730Z,15.29
2022-10-25T04:07:57.971Z,15.43
2022-10-25T04:10:25.757Z,15.43
2022-10-25T04:12:54.491Z,15.42
2022-10-25T04:15:22.895Z,15.36
2022-10-25T04:17:53.624Z,15.22
2022-10-25T04:20:21.146Z,15.35
2022-10-25T04:22:58.244Z,15.33
2022-10-25T04:25:26.975Z,15.33
2022-10-25T04:27:54.041Z,15.31
2022-10-25T04:30:20.959Z,15.34
2022-10-25T04:32:48.122Z,15.41
2022-10-25T04:35:15.275Z,15.39
2022-10-25T04:37:42.393Z,15.38
2022-10-25T04:40:10.157Z,15.47
2022-10-25T04:42:37.051Z,15.48
2022-10-25T04:45:04.273Z,15.50
2022-10-25T04:47:32.712Z,15.41
2022-10-25T04:50:00.311Z,15.44
2022-10-25T04:52:29.562Z,15.42
2022-10-25T04:54:56.880Z,15.42
2022-10-25T04:57:24.079Z,15.29
2022-10-25T04:59:51.063Z,15.43
2022-10-25T05:02:17.944Z,15.58
2022-10-25T05:04:44.838Z,15.66
2022-10-25T05:07:11.702Z,15.56
2022-10-25T05:09:40.078Z,15.53
2022-10-25T05:12:08.437Z,15.65
2022-10-25T05:14:35.331Z,15.58
2022-10-25T05:17:02.191Z,15.75
2022-10-25T05:19:29.122Z,15.83
2022-10-25T05:21:56.158Z,15.93
2022-10-25T05:24:23.119Z,15.97
2022-10-25T05:26:49.959Z,16.06
2022-10-25T05:29:16.899Z,16.14
2022-10-25T05:31:43.815Z,16.20
2022-10-25T05:34:10.968Z,16.29
2022-10-25T05:36:38.282Z,16.41
2022-10-25T05:39:05.313Z,16.37
2022-10-25T05:41:36.048Z,16.39
2022-10-25T05:44:05.398Z,16.54
2022-10-25T05:46:32.427Z,16.61
2022-10-25T05:49:00.072Z,16.77
2022-10-25T05:51:37.294Z,17.02
2022-10-25T05:54:13.030Z,17.02
2022-10-25T05:56:41.069Z,17.08
2022-10-25T05:59:13.305Z,17.28
2022-10-25T06:01:42.806Z,17.37
2022-10-25T06:04:10.325Z,17.52
2022-10-25T06:06:39.153Z,17.53
2022-10-25T06:09:07.338Z,17.65
2022-10-25T06:11:35.739Z,17.57
2022-10-25T06:14:03.260Z,17.62
2022-10-25T06:16:30.317Z,17.65
2022-10-25T06:18:57.533Z,17.65
2022-10-25T06:21:27.007Z,17.79
2022-10-25T06:23:54.366Z,17.91
2022-10-25T06:26:27.297Z,17.82
2022-10-25T06:28:56.434Z,17.97
2022-10-25T06:31:23.708Z,17.98
2022-10-25T06:33:51.035Z,18.24
2022-10-25T06:36:20.348Z,18.19
2022-10-25T06:38:48.350Z,18.20
2022-10-25T06:41:17.981Z,18.43
2022-10-25T06:43:44.998Z,18.58
2022-10-25T06:46:21.739Z,18.73
2022-10-25T06:48:49.344Z,18.83
2022-10-25T06:51:16.310Z,18.63
2022-10-25T06:53:43.171Z,18.54
2022-10-25T06:56:14.716Z,18.47
2022-10-25T06:58:42.468Z,18.56
2022-10-25T07:01:17.439Z,18.75
2022-10-25T07:03:46.193Z,18.79
2022-10-25T07:06:18.885Z,18.66
2022-10-25T07:08:47.313Z,18.68
2022-10-25T07:11:17.250Z,18.89
2022-10-25T07:13:44.623Z,18.80
2022-10-25T07:16:16.420Z,19.21
2022-10-25T07:18:43.877Z,19.06
2022-10-25T07:21:13.275Z,19.23
2022-10-25T07:23:43.941Z,19.25
2022-10-25T07:26:16.684Z,19.45
2022-10-25T07:28:46.167Z,19.48
2022-10-25T07:31:25.126Z,19.42
2022-10-25T07:33:53.821Z,19.66
2022-10-25T07:36:21.152Z,19.77
2022-10-25T07:38:48.045Z,19.76
2022-10-25T07:41:15.069Z,20.10
2022-10-25T07:43:42.263Z,20.21
2022-10-25T07:46:09.528Z,20.29
2022-10-25T07:48:36.665Z,20.36
2022-10-25T07:51:11.595Z,20.16
2022-10-25T07:53:39.131Z,20.51
2022-10-25T07:56:06.641Z,20.50
2022-10-25T07:58:33.865Z,20.51
2022-10-25T08:01:06.424Z,20.58
2022-10-25T08:03:34.021Z,20.69
2022-10-25T08:06:01.457Z,20.74
2022-10-25T08:08:29.560Z,20.71
2022-10-25T08:10:57.295Z,20.81
2022-10-25T08:13:24.258Z,20.80
2022-10-25T08:15:56.316Z,20.79
2022-10-25T08:18:24.090Z,20.87
2022-10-25T08:21:06.478Z,20.96
2022-10-25T08:23:34.036Z,21.13
2022-10-25T08:26:02.234Z,21.36
2022-10-25T08:28:31.490Z,21.40
2022-10-25T08:31:01.187Z,21.52
2022-10-25T08:33:29.210Z,21.49
2022-10-25T08:35:56.170Z,21.44
2022-10-25T08:38:23.037Z,21.32
2022-10-25T08:41:10.362Z,21.77
2022-10-25T08:44:01.248Z,21.82
2022-10-25T08:46:35.135Z,21.80
2022-10-25T08:49:14.031Z,21.67
2022-10-25T08:51:45.454Z,21.81
2022-10-25T08:54:22.557Z,21.98
2022-10-25T08:57:10.910Z,22.12
2022-10-25T08:59:45.735Z,22.25
2022-10-25T09:02:35.978Z,22.17
2022-10-25T09:05:03.883Z,22.39
2022-10-25T09:07:44.707Z,22.16
2022-10-25T09:10:43.802Z,22.52
2022-10-25T09:13:30.920Z,22.57
2022-10-25T09:16:05.945Z,22.45
2022-10-25T09:18:55.085Z,22.44
2022-10-25T09:21:39.929Z,22.62
2022-10-25T09:24:21.870Z,22.50
2022-10-25T09:27:08.948Z,22.85
2022-10-25T09:29:55.460Z,22.78
2022-10-25T09:32:32.110Z,22.97
2022-10-25T09:35:01.621Z,23.18
2022-10-25T09:37:36.048Z,22.99
2022-10-25T09:40:22.293Z,23.27
2022-10-25T09:42:49.081Z,23.16
2022-10-25T10:16:50.208Z,22.18
2022-10-25T10:19:20.058Z,22.45
2022-10-25T10:22:08.790Z,22.61
2022-10-25T10:24:41.268Z,22.69
2022-10-25T10:27:13.980Z,22.81
2022-10-25T10:29:59.943Z,23.06
2022-10-25T10:32:31.981Z,23.03
2022-10-25T10:34:59.715Z,22.98
2022-10-25T10:37:28.963Z,23.02
2022-10-25T10:40:02.908Z,22.98
2022-10-25T10:42:35.655Z,22.96
2022-10-25T10:45:08.726Z,22.97
2022-10-25T10:47:41.979Z,23.27
2022-10-25T10:50:20.589Z,22.87
2022-10-25T10:53:09.407Z,22.86
2022-10-25T10:55:46.855Z,22.81
2022-10-25T10:58:17.820Z,22.95
2022-10-25T11:01:12.791Z,22.87
2022-10-25T11:03:49.212Z,22.89
2022-10-25T11:06:32.145Z,22.77
2022-10-25T11:09:17.993Z,23.03
2022-10-25T11:12:04.385Z,23.18
2022-10-25T11:14:31.485Z,23.24
2022-10-25T11:17:26.360Z,23.08
2022-10-25T11:20:25.144Z,23.06
2022-10-25T11:23:06.920Z,22.90
2022-10-25T11:25:58.360Z,23.12
2022-10-25T11:28:47.934Z,23.10
2022-10-25T11:31:33.195Z,23.31
2022-10-25T11:34:24.657Z,23.19
2022-10-25T11:37:00.420Z,23.24
2022-10-25T11:39:51.576Z,23.25
2022-10-25T11:42:58.763Z,23.15
2022-10-25T11:45:28.865Z,23.14
2022-10-25T11:48:09.900Z,23.21
2022-10-25T11:50:49.390Z,23.21
2022-10-25T11:53:25.112Z,23.26
2022-10-25T11:56:04.811Z,23.19
2022-10-25T11:58:40.699Z,23.17
2022-10-25T12:01:16.681Z,23.15
2022-10-25T12:03:46.293Z,23.28
2022-10-25T12:06:24.481Z,23.36
2022-10-25T12:09:26.623Z,23.25
2022-10-25T12:12:03.363Z,23.13
2022-10-25T12:14:38.287Z,23.32
2022-10-25T12:17:13.065Z,23.35
2022-10-25T12:19:46.641Z,23.32
2022-10-25T12:22:34.705Z,23.34
2022-10-25T12:25:23.849Z,23.44
2022-10-25T12:28:21.342Z,23.33
2022-10-25T12:30:50.800Z,23.22
2022-10-25T12:33:39.610Z,23.27
2022-10-25T12:36:15.758Z,23.26
2022-10-25T12:38:42.940Z,23.24
2022-10-25T12:41:23.658Z,23.15
2022-10-25T12:43:56.595Z,23.09
2022-10-25T12:46:46.818Z,23.09
2022-10-25T12:49:41.396Z,23.28
2022-10-25T12:52:32.734Z,23.17
2022-10-25T12:55:41.039Z,23.15
2022-10-25T12:58:16.928Z,23.16
2022-10-25T13:00:56.710Z,23.17
2022-10-25T13:03:45.229Z,23.19
2022-10-25T13:06:24.179Z,23.05
2022-10-25T13:08:51.559Z,23.11
2022-10-25T13:11:18.576Z,23.10
2022-10-25T13:13:56.013Z,23.12
2022-10-25T13:16:34.348Z,23.11
2022-10-25T13:19:30.579Z,23.35
2022-10-25T13:22:14.097Z,23.25
2022-10-25T13:24:43.745Z,23.31
2022-10-25T13:27:13.536Z,23.46
2022-10-25T13:30:02.791Z,23.30
2022-10-25T13:32:32.651Z,23.19
2022-10-25T13:34:59.838Z,23.39
2022-10-25T13:37:32.647Z,23.26
2022-10-25T13:40:03.937Z,23.11
2022-10-25T13:42:37.812Z,23.13
2022-10-25T13:45:04.599Z,23.16
2022-10-25T13:47:41.582Z,23.04
2022-10-25T13:50:18.007Z,23.10
2022-10-25T13:53:00.190Z,22.96
2022-10-25T13:55:34.854Z,22.77
2022-10-25T13:58:01.868Z,22.72
2022-10-25T14:00:39.108Z,22.67
2022-10-25T14:03:08.662Z,22.65
2022-10-25T14:05:54.063Z,22.55
2022-10-25T14:08:38.837Z,22.49
2022-10-25T14:11:14.766Z,22.60
2022-10-25T14:13:58.216Z,22.77
2022-10-25T14:16:30.270Z,22.60
2022-10-25T14:19:03.347Z,22.59
2022-10-25T14:21:30.400Z,22.67
2022-10-25T14:23:58.381Z,22.62
2022-10-25T14:26:25.407Z,22.65
2022-10-25T14:28:52.398Z,22.62
2022-10-25T14:31:21.799Z,22.38
2022-10-25T14:33:56.541Z,22.46
2022-10-25T14:36:36.759Z,22.39
2022-10-25T14:39:25.665Z,22.25
2022-10-25T14:41:57.863Z,22.28
2022-10-25T14:44:30.152Z,21.95
2022-10-25T14:46:59.366Z,21.91
2022-10-25T14:49:27.548Z,21.79
2022-10-25T14:51:59.817Z,21.80
2022-10-25T14:54:37.611Z,21.70
2022-10-25T14:57:09.730Z,21.69
2022-10-25T14:59:48.406Z,21.57
2022-10-25T15:02:20.956Z,21.43
2022-10-25T15:04:50.362Z,21.38
2022-10-25T15:07:41.689Z,21.10
2022-10-25T15:10:35.425Z,21.14
2022-10-25T15:13:12.689Z,21.18
2022-10-25T15:15:44.973Z,20.92
2022-10-25T15:18:27.174Z,20.99
2022-10-25T15:21:16.452Z,20.94
2022-10-25T15:24:04.469Z,20.95
2022-10-25T15:26:34.676Z,20.57
2022-10-25T15:29:05.116Z,20.23
2022-10-25T15:31:33.012Z,20.13
2022-10-25T15:34:05.582Z,20.18
2022-10-25T15:36:34.170Z,20.25
2022-10-25T15:39:10.484Z,20.15
2022-10-25T15:41:41.167Z,20.21
2022-10-25T15:44:08.160Z,20.25
2022-10-25T15:46:35.412Z,20.30
2022-10-25T15:49:06.866Z,20.34
2022-10-25T15:51:36.265Z,20.38
2022-10-25T15:54:03.361Z,20.41
2022-10-25T15:56:30.267Z,20.49
2022-10-25T15:58:58.792Z,20.42
2022-10-25T16:01:25.910Z,20.44
2022-10-25T16:03:52.906Z,20.36
2022-10-25T16:06:19.838Z,20.32
2022-10-25T16:08:46.701Z,20.31
2022-10-25T16:11:17.628Z,20.18
2022-10-25T16:13:48.978Z,20.19
2022-10-25T16:16:40.221Z,20.09
2022-10-25T16:19:16.670Z,20.18
2022-10-25T16:21:44.023Z,20.13
2022-10-25T16:24:12.149Z,20.18
2022-10-25T16:26:42.960Z,20.21
2022-10-25T16:29:28.057Z,20.07
2022-10-25T16:31:54.983Z,19.89
2022-10-25T16:34:22.106Z,20.01
2022-10-25T16:36:50.623Z,19.71
2022-10-25T16:39:17.745Z,19.63
2022-10-25T16:41:46.285Z,19.82
2022-10-25T16:44:15.717Z,19.88
2022-10-25T16:46:43.287Z,19.68
2022-10-25T16:49:10.492Z,19.39
2022-10-25T16:51:38.648Z,19.51
2022-10-25T16:54:06.182Z,19.56
2022-10-25T16:56:33.115Z,19.68
2022-10-25T16:59:00.823Z,19.70
2022-10-25T17:01:34.556Z,19.90
2022-10-25T17:04:04.261Z,19.90
2022-10-25T17:06:46.769Z,19.95
2022-10-25T17:09:13.830Z,19.95
2022-10-25T17:11:41.129Z,19.98
2022-10-25T17:14:09.899Z,19.88
2022-10-25T17:16:39.609Z,19.79
2022-10-25T17:19:06.592Z,19.78
2022-10-25T17:21:35.897Z,19.20
2022-10-25T17:24:04.730Z,18.79
2022-10-25T17:26:31.755Z,18.99
2022-10-25T17:29:00.971Z,18.83
2022-10-25T17:31:32.730Z,18.93
2022-10-25T17:34:01.085Z,19.01
2022-10-25T17:36:32.528Z,18.90
2022-10-25T17:39:02.513Z,18.50
2022-10-25T17:41:29.570Z,18.30
2022-10-25T17:43:57.049Z,18.42
2022-10-25T17:46:29.767Z,18.52
2022-10-25T17:49:03.414Z,18.59
2022-10-25T17:51:32.009Z,18.64
2022-10-25T17:53:59.048Z,18.65
2022-10-25T17:56:27.306Z,18.72
2022-10-25T17:58:55.643Z,18.84
2022-10-25T18:01:26.679Z,18.86
2022-10-25T18:03:54.953Z,18.95
2022-10-25T18:06:24.127Z,18.88
2022-10-25T18:08:56.285Z,18.65
2022-10-25T18:11:24.958Z,18.50
2022-10-25T18:13:59.946Z,18.74
2022-10-25T18:16:31.047Z,18.69
2022-10-25T18:19:01.503Z,18.76
2022-10-25T18:21:29.339Z,18.83
2022-10-25T18:23:58.616Z,18.93
2022-10-25T18:26:26.865Z,18.67
2022-10-25T18:28:53.925Z,18.62
2022-10-25T18:31:21.181Z,18.41
2022-10-25T18:33:48.325Z,18.41
2022-10-25T18:36:19.438Z,18.43
2022-10-25T18:38:47.436Z,18.47
2022-10-25T18:41:26.051Z,18.42
2022-10-25T18:43:54.961Z,18.34
2022-10-25T18:46:22.309Z,18.28
2022-10-25T18:48:52.884Z,18.22
2022-10-25T18:51:22.170Z,18.38
2022-10-25T18:53:53.261Z,18.51
2022-10-25T18:56:22.062Z,18.61
2022-10-25T18:58:49.754Z,18.67
2022-10-25T19:01:20.938Z,18.62
2022-10-25T19:03:48.163Z,18.53
2022-10-25T19:06:15.192Z,18.53
2022-10-25T19:08:43.093Z,18.60
2022-10-25T19:11:12.454Z,18.71
2022-10-25T19:13:40.496Z,18.77
2022-10-25T19:16:09.413Z,18.78
2022-10-25T19:18:37.830Z,18.83
2022-10-25T19:21:10.101Z,18.85
2022-10-25T19:23:37.399Z,18.87
2022-10-25T19:26:10.130Z,18.79
2022-10-25T19:28:37.196Z,18.68
2022-10-25T19:31:09.556Z,18.68
2022-10-25T19:33:36.734Z,18.72
2022-10-25T19:36:09.059Z,18.83
2022-10-25T19:38:36.899Z,18.94
2022-10-25T19:41:06.256Z,19.00
2022-10-25T19:43:33.894Z,19.05
2022-10-25T19:46:04.881Z,19.04
2022-10-25T19:48:32.669Z,18.92
2022-10-25T19:51:15.370Z,18.95
2022-10-25T19:53:42.730Z,19.01
2022-10-25T19:56:16.093Z,19.04
2022-10-25T19:58:43.183Z,19.13
2022-10-25T20:01:16.096Z,19.12
2022-10-25T20:03:44.974Z,19.22
2022-10-25T20:06:20.225Z,19.22
2022-10-25T20:08:50.519Z,19.23
2022-10-25T20:11:18.462Z,19.25
2022-10-25T20:13:45.777Z,19.29
2022-10-25T20:16:14.183Z,19.28
2022-10-25T20:18:42.663Z,19.20
2022-10-25T20:21:11.514Z,19.17
2022-10-25T20:23:39.704Z,19.11
2022-10-25T20:26:12.185Z,19.09
2022-10-25T20:28:39.196Z,18.99
2022-10-25T20:31:06.084Z,19.03
2022-10-25T20:33:33.218Z,19.02
2022-10-25T20:36:05.720Z,18.96
2022-10-25T20:38:32.774Z,18.97
2022-10-25T20:41:11.582Z,18.97
2022-10-25T20:43:39.778Z,18.93
2022-10-25T20:46:08.189Z,18.86
2022-10-25T20:48:35.354Z,18.80
2022-10-25T20:51:05.334Z,18.72
2022-10-25T20:53:35.472Z,18.60
2022-10-25T20:56:02.468Z,18.54
2022-10-25T20:58:29.321Z,18.52
2022-10-25T21:00:57.650Z,18.52
2022-10-25T21:03:26.623Z,18.46
2022-10-25T21:05:54.832Z,18.45
2022-10-25T21:08:23.120Z,18.31
2022-10-25T21:11:16.449Z,18.01
2022-10-25T21:13:43.299Z,17.86
2022-10-25T21:16:12.286Z,17.82
2022-10-25T21:18:39.519Z,17.89
2022-10-25T21:21:09.066Z,17.94
2022-10-25T21:23:36.070Z,17.90
2022-10-25T21:26:07.761Z,17.91
2022-10-25T21:28:37.012Z,17.89
2022-10-25T21:31:06.277Z,17.90
2022-10-25T21:33:33.486Z,17.97
2022-10-25T21:36:08.954Z,18.03
2022-10-25T21:38:36.279Z,18.06
2022-10-25T21:41:15.010Z,18.05
2022-10-25T21:43:51.040Z,18.04
2022-10-25T21:46:19.894Z,17.98
2022-10-25T21:48:48.073Z,18.00
2022-10-25T21:51:15.281Z,17.92
2022-10-25T21:53:42.569Z,17.97
2022-10-25T21:56:11.108Z,17.81
2022-10-25T21:58:39.422Z,17.62
2022-10-25T22:01:17.728Z,17.51
2022-10-25T22:03:44.679Z,17.55
2022-10-25T22:06:13.778Z,17.67
2022-10-25T22:08:41.085Z,17.72
2022-10-25T22:11:12.428Z,17.72
2022-10-25T22:13:39.590Z,17.80
2022-10-25T22:16:12.482Z,17.68
2022-10-25T22:18:39.863Z,17.66
2022-10-25T22:21:11.945Z,17.61
2022-10-25T22:23:39.481Z,17.39
2022-10-25T22:26:09.440Z,17.08
2022-10-25T22:28:40.728Z,17.18
2022-10-25T22:31:16.950Z,17.13
2022-10-25T22:33:44.804Z,16.99
2022-10-25T22:36:14.633Z,16.86
2022-10-25T22:38:41.836Z,16.84
2022-10-25T22:41:20.382Z,16.83
2022-10-25T22:43:48.708Z,16.83
2022-10-25T22:46:29.931Z,16.75
2022-10-25T22:48:58.489Z,16.74
2022-10-25T22:51:27.728Z,16.77
2022-10-25T22:53:55.285Z,16.86
2022-10-25T22:56:27.420Z,16.78
2022-10-25T22:58:56.939Z,16.62
2022-10-25T23:01:29.396Z,16.39
2022-10-25T23:03:58.055Z,16.17
2022-10-25T23:06:29.897Z,16.05
2022-10-25T23:08:58.700Z,15.90
2022-10-25T23:11:31.458Z,15.86
2022-10-25T23:13:58.678Z,15.80
2022-10-25T23:16:26.596Z,15.78
2022-10-25T23:18:54.037Z,15.75
2022-10-25T23:21:23.511Z,15.85
2022-10-25T23:23:52.212Z,15.90
2022-10-25T23:26:22.475Z,16.00
2022-10-25T23:28:50.136Z,15.96
2022-10-25T23:31:17.797Z,15.95
2022-10-25T23:33:45.453Z,15.79
2022-10-25T23:36:15.667Z,15.68
2022-10-25T23:38:43.592Z,15.62
2022-10-25T23:41:10.892Z,15.47
2022-10-25T23:43:38.163Z,15.44
2022-10-25T23:46:06.201Z,15.40
2022-10-25T23:48:33.475Z,15.38
2022-10-25T23:51:03.117Z,15.34
2022-10-25T23:53:30.470Z,15.33
2022-10-25T23:55:57.889Z,15.43
2022-10-25T23:58:25.108Z,15.41
